Time;durP1;ratioP1;P1;durP2;ratioP2;P2;SDS_P1;SDS_P2;PMS_P1;PMS_P2;Temp;Humidity;BMP_temperature;BMP_pressure;BME280_temperature;BME280_humidity;BME280_pressure;Samples;Min_cycle;Max_cycle;Signal;HPM_P1;HPM_P2
2023/10/31 00:01:59;;;;;;;1.20;1.20;;;;;;;;;;5054707;28;20222;-78
2023/10/31 00:04:27;;;;;;;1.30;1.20;;;;;;;;;;5052497;28;20212;-76
2023/10/31 00:06:54;;;;;;;1.13;1.13;;;;;;;;;;5062874;28;20222;-77
2023/10/31 00:09:21;;;;;;;1.10;1.10;;;;;;;;;;5065520;28;20273;-75
2023/10/31 00:11:48;;;;;;;1.00;1.00;;;;;;;;;;5063028;28;20224;-76
2023/10/31 00:14:16;;;;;;;2.07;1.10;;;;;;;;;;5063245;28;20230;-75
2023/10/31 00:16:58;;;;;;;1.10;1.10;;;;;;;;;;5068892;28;20395;-75
2023/10/31 00:19:25;;;;;;;1.10;1.00;;;;;;;;;;5064166;28;20292;-75
2023/10/31 00:21:52;;;;;;;1.33;0.90;;;;;;;;;;5069297;28;20279;-74
2023/10/31 00:24:20;;;;;;;0.90;0.90;;;;;;;;;;5062457;28;20240;-76
2023/10/31 00:26:47;;;;;;;0.70;0.70;;;;;;;;;;5067271;28;20221;-75
2023/10/31 00:29:22;;;;;;;1.00;0.97;;;;;;;;;;5064732;28;20198;-76
2023/10/31 00:31:58;;;;;;;1.00;1.00;;;;;;;;;;5061164;28;20226;-77
2023/10/31 00:34:25;;;;;;;0.90;0.90;;;;;;;;;;5053974;28;20213;-75
2023/10/31 00:36:52;;;;;;;1.00;1.00;;;;;;;;;;5059681;28;20205;-75
2023/10/31 00:39:19;;;;;;;1.00;1.00;;;;;;;;;;5037892;28;20642;-76
2023/10/31 00:41:47;;;;;;;0.90;0.90;;;;;;;;;;5043603;28;20256;-77
2023/10/31 00:44:14;;;;;;;0.90;0.90;;;;;;;;;;5038813;28;20587;-76
2023/10/31 00:46:41;;;;;;;1.00;1.00;;;;;;;;;;5037414;28;20994;-76
2023/10/31 00:49:09;;;;;;;0.80;0.80;;;;;;;;;;5036664;28;20208;-75
2023/10/31 00:51:36;;;;;;;0.77;0.77;;;;;;;;;;5051488;28;20221;-78
2023/10/31 00:54:03;;;;;;;3.33;1.10;;;;;;;;;;5075659;28;20216;-77
2023/10/31 00:56:31;;;;;;;0.90;0.90;;;;;;;;;;5073993;28;20216;-78
2023/10/31 00:58:58;;;;;;;0.80;0.80;;;;;;;;;;5075237;28;20656;-77
2023/10/31 01:01:25;;;;;;;1.37;1.00;;;;;;;;;;5075813;28;20230;-77
2023/10/31 01:03:53;;;;;;;1.03;1.00;;;;;;;;;;5075829;28;20259;-78
2023/10/31 01:06:20;;;;;;;0.93;0.80;;;;;;;;;;5074602;28;20613;-77
2023/10/31 01:08:47;;;;;;;0.80;0.80;;;;;;;;;;5074512;28;20255;-78
2023/10/31 01:11:15;;;;;;;0.80;0.80;;;;;;;;;;5073907;28;20256;-77
2023/10/31 01:13:42;;;;;;;0.73;0.73;;;;;;;;;;5072923;28;20284;-76
2023/10/31 01:16:09;;;;;;;1.43;0.90;;;;;;;;;;5073747;28;20220;-77
2023/10/31 01:18:37;;;;;;;0.70;0.70;;;;;;;;;;5072414;28;20616;-76
2023/10/31 01:21:04;;;;;;;1.07;0.97;;;;;;;;;;5073364;28;20759;-77
2023/10/31 01:23:36;;;;;;;0.80;0.80;;;;;;;;;;5073386;28;20681;-78
2023/10/31 01:26:03;;;;;;;0.90;0.80;;;;;;;;;;5072840;28;20240;-77
2023/10/31 01:28:31;;;;;;;0.80;0.80;;;;;;;;;;5071762;28;20300;-78
2023/10/31 01:30:58;;;;;;;1.00;1.00;;;;;;;;;;5073319;28;20727;-77
2023/10/31 01:33:26;;;;;;;1.90;0.90;;;;;;;;;;5072667;28;20208;-77
2023/10/31 01:35:54;;;;;;;0.80;0.80;;;;;;;;;;5072508;28;20317;-77
2023/10/31 01:38:21;;;;;;;0.70;0.70;;;;;;;;;;5074224;28;20236;-79
2023/10/31 01:40:51;;;;;;;1.43;0.87;;;;;;;;;;5074524;28;20778;-79
2023/10/31 01:43:32;;;;;;;0.80;0.80;;;;;;;;;;5074151;28;20201;-78
2023/10/31 01:45:59;;;;;;;0.80;0.80;;;;;;;;;;5074814;28;20229;-77
2023/10/31 01:48:28;;;;;;;0.90;0.90;;;;;;;;;;5076791;28;20212;-76
2023/10/31 01:50:56;;;;;;;0.90;0.90;;;;;;;;;;5077549;28;20225;-77
2023/10/31 01:53:25;;;;;;;1.20;1.00;;;;;;;;;;5076992;28;20237;-76
2023/10/31 01:55:53;;;;;;;0.83;0.83;;;;;;;;;;5077272;28;20221;-78
2023/10/31 01:58:24;;;;;;;0.90;0.90;;;;;;;;;;5077740;28;20219;-78
2023/10/31 02:00:51;;;;;;;0.83;0.83;;;;;;;;;;5077545;28;20221;-78
2023/10/31 02:03:19;;;;;;;0.80;0.80;;;;;;;;;;5077077;28;20201;-77
2023/10/31 02:05:46;;;;;;;0.90;0.90;;;;;;;;;;5078284;28;20235;-78
2023/10/31 02:08:14;;;;;;;0.90;0.90;;;;;;;;;;5077588;28;20266;-77
2023/10/31 02:10:41;;;;;;;0.90;0.90;;;;;;;;;;5076621;28;20205;-77
2023/10/31 02:13:12;;;;;;;0.80;0.80;;;;;;;;;;5077295;28;20292;-77
2023/10/31 02:15:39;;;;;;;0.90;0.90;;;;;;;;;;5077225;28;20284;-77
2023/10/31 02:18:08;;;;;;;0.90;0.90;;;;;;;;;;5077267;28;20209;-77
2023/10/31 02:20:36;;;;;;;0.90;0.90;;;;;;;;;;5077224;28;20288;-77
2023/10/31 02:23:03;;;;;;;0.80;0.80;;;;;;;;;;5076527;28;20212;-78
2023/10/31 02:25:31;;;;;;;0.80;0.80;;;;;;;;;;5076734;28;20644;-77
2023/10/31 02:27:58;;;;;;;1.20;0.90;;;;;;;;;;5077449;28;20641;-78
2023/10/31 02:30:27;;;;;;;1.53;0.93;;;;;;;;;;5077239;28;20202;-79
2023/10/31 02:32:56;;;;;;;0.70;0.70;;;;;;;;;;5076494;28;20205;-78
2023/10/31 02:35:23;;;;;;;0.80;0.80;;;;;;;;;;5075769;28;20300;-78
2023/10/31 02:37:50;;;;;;;1.00;1.00;;;;;;;;;;5077292;28;20220;-78
2023/10/31 02:40:18;;;;;;;0.90;0.90;;;;;;;;;;5076239;28;20524;-76
2023/10/31 02:42:45;;;;;;;0.90;0.90;;;;;;;;;;5076204;28;20309;-79
2023/10/31 02:45:13;;;;;;;0.70;0.70;;;;;;;;;;5077051;28;20194;-76
2023/10/31 02:47:40;;;;;;;1.30;0.80;;;;;;;;;;5040885;28;20229;-76
2023/10/31 02:50:07;;;;;;;0.80;0.80;;;;;;;;;;5039469;28;20584;-75
2023/10/31 02:52:36;;;;;;;0.80;0.80;;;;;;;;;;5051199;28;20261;-75
2023/10/31 02:55:03;;;;;;;1.67;0.90;;;;;;;;;;5051715;28;20198;-76
2023/10/31 02:57:30;;;;;;;0.87;0.87;;;;;;;;;;5039822;28;20255;-76
2023/10/31 02:59:58;;;;;;;0.93;0.93;;;;;;;;;;5039060;28;20292;-77
2023/10/31 03:02:25;;;;;;;0.80;0.80;;;;;;;;;;5043704;28;21068;-75
2023/10/31 03:04:53;;;;;;;0.97;0.97;;;;;;;;;;5043597;28;20810;-76
2023/10/31 03:07:20;;;;;;;0.80;0.80;;;;;;;;;;5039923;28;20229;-75
2023/10/31 03:09:47;;;;;;;1.10;1.00;;;;;;;;;;5049004;28;20655;-76
2023/10/31 03:12:14;;;;;;;1.70;0.87;;;;;;;;;;5069708;28;20723;-76
2023/10/31 03:14:42;;;;;;;0.90;0.90;;;;;;;;;;5061782;28;20209;-75
2023/10/31 03:17:09;;;;;;;1.73;0.90;;;;;;;;;;5065887;28;20197;-76
2023/10/31 03:19:36;;;;;;;0.90;0.90;;;;;;;;;;5056499;28;20239;-76
2023/10/31 03:22:04;;;;;;;0.70;0.70;;;;;;;;;;5062412;28;20308;-75
2023/10/31 03:24:31;;;;;;;1.90;1.00;;;;;;;;;;5057302;28;20213;-75
2023/10/31 03:26:58;;;;;;;0.97;0.90;;;;;;;;;;5059993;28;20225;-73
2023/10/31 03:29:26;;;;;;;0.80;0.80;;;;;;;;;;5061507;28;20210;-76
2023/10/31 03:31:53;;;;;;;0.73;0.73;;;;;;;;;;5059536;28;20581;-77
2023/10/31 03:34:20;;;;;;;0.90;0.90;;;;;;;;;;5061022;28;20202;-77
2023/10/31 03:36:47;;;;;;;0.80;0.80;;;;;;;;;;5059696;28;20639;-76
2023/10/31 03:39:15;;;;;;;1.03;1.03;;;;;;;;;;5050141;28;20205;-75
2023/10/31 03:41:42;;;;;;;1.27;0.80;;;;;;;;;;5039811;28;20707;-77
2023/10/31 03:44:09;;;;;;;1.20;0.87;;;;;;;;;;5039711;28;20714;-78
2023/10/31 03:46:37;;;;;;;2.00;0.80;;;;;;;;;;5036575;28;20225;-76
2023/10/31 03:49:07;;;;;;;1.90;0.83;;;;;;;;;;5041837;28;20220;-77
2023/10/31 03:51:34;;;;;;;0.80;0.80;;;;;;;;;;5036926;28;20245;-77
2023/10/31 03:54:01;;;;;;;0.90;0.90;;;;;;;;;;5042814;28;20233;-77
2023/10/31 03:56:29;;;;;;;2.77;1.00;;;;;;;;;;5040263;28;20578;-76
2023/10/31 03:58:56;;;;;;;1.27;1.00;;;;;;;;;;5049240;28;20208;-77
2023/10/31 04:01:23;;;;;;;0.90;0.90;;;;;;;;;;5055286;28;20730;-77
2023/10/31 04:03:51;;;;;;;0.93;0.93;;;;;;;;;;5059860;28;20209;-77
2023/10/31 04:06:18;;;;;;;1.20;1.10;;;;;;;;;;5060322;28;20229;-76
2023/10/31 04:08:45;;;;;;;2.30;1.20;;;;;;;;;;5060225;28;20210;-75
2023/10/31 04:11:12;;;;;;;1.10;1.10;;;;;;;;;;5060963;28;20225;-77
2023/10/31 04:13:40;;;;;;;1.10;1.10;;;;;;;;;;5064864;28;20628;-75
2023/10/31 04:16:07;;;;;;;1.30;1.30;;;;;;;;;;5059778;28;20209;-75
2023/10/31 04:18:35;;;;;;;1.17;1.17;;;;;;;;;;5058468;28;20199;-76
2023/10/31 04:21:02;;;;;;;1.40;1.30;;;;;;;;;;5062812;28;20993;-75
2023/10/31 04:23:29;;;;;;;1.10;1.10;;;;;;;;;;5064408;28;20579;-75
2023/10/31 04:25:58;;;;;;;1.30;1.20;;;;;;;;;;5056201;28;20210;-76
2023/10/31 04:28:25;;;;;;;1.10;1.00;;;;;;;;;;5065344;28;20301;-76
2023/10/31 04:30:52;;;;;;;1.10;1.00;;;;;;;;;;5056011;28;20222;-75
2023/10/31 04:33:19;;;;;;;3.60;0.87;;;;;;;;;;5061159;28;20644;-76
2023/10/31 04:35:47;;;;;;;1.33;0.90;;;;;;;;;;5053384;28;20195;-77
2023/10/31 04:38:14;;;;;;;1.00;1.00;;;;;;;;;;5061548;28;20564;-75
2023/10/31 04:40:42;;;;;;;1.80;1.00;;;;;;;;;;5065209;28;20205;-76
2023/10/31 04:43:09;;;;;;;0.77;0.77;;;;;;;;;;5064682;28;20204;-77
2023/10/31 04:45:37;;;;;;;1.73;1.20;;;;;;;;;;5066336;28;20581;-76
2023/10/31 04:48:04;;;;;;;1.37;1.30;;;;;;;;;;5071712;28;20273;-76
2023/10/31 04:50:31;;;;;;;1.20;1.20;;;;;;;;;;5073762;28;20209;-77
2023/10/31 04:52:59;;;;;;;0.80;0.80;;;;;;;;;;5070824;28;20205;-76
2023/10/31 04:55:26;;;;;;;1.33;0.90;;;;;;;;;;5072229;28;20822;-77
2023/10/31 04:57:53;;;;;;;1.03;0.80;;;;;;;;;;5072696;28;20205;-75
2023/10/31 05:00:21;;;;;;;0.90;0.90;;;;;;;;;;5072200;28;20204;-74
2023/10/31 05:02:48;;;;;;;2.30;0.70;;;;;;;;;;5073436;28;20236;-78
2023/10/31 05:05:16;;;;;;;1.40;0.80;;;;;;;;;;5070906;28;20198;-75
2023/10/31 05:07:43;;;;;;;1.37;0.70;;;;;;;;;;5071064;28;20321;-77
2023/10/31 05:10:11;;;;;;;1.70;0.80;;;;;;;;;;5077855;28;20645;-75
2023/10/31 05:12:38;;;;;;;0.83;0.83;;;;;;;;;;5072490;28;20222;-76
2023/10/31 05:15:06;;;;;;;0.93;0.90;;;;;;;;;;5071141;28;20208;-76
2023/10/31 05:17:33;;;;;;;0.97;0.87;;;;;;;;;;5071492;28;20205;-76
2023/10/31 05:20:00;;;;;;;1.17;1.17;;;;;;;;;;5064553;28;20205;-75
2023/10/31 05:22:28;;;;;;;0.90;0.90;;;;;;;;;;5070708;28;20313;-79
2023/10/31 05:24:55;;;;;;;0.87;0.87;;;;;;;;;;5071125;28;20233;-73
2023/10/31 05:27:22;;;;;;;0.90;0.83;;;;;;;;;;5069499;28;20242;-76
2023/10/31 05:29:50;;;;;;;0.90;0.90;;;;;;;;;;5070745;28;20202;-76
2023/10/31 05:32:17;;;;;;;1.13;0.90;;;;;;;;;;5069214;28;20218;-77
2023/10/31 05:34:45;;;;;;;1.70;1.60;;;;;;;;;;5068098;28;20262;-76
2023/10/31 05:37:12;;;;;;;0.70;0.70;;;;;;;;;;5071153;28;20213;-77
2023/10/31 05:39:39;;;;;;;1.43;0.90;;;;;;;;;;5068939;28;20202;-76
2023/10/31 05:42:08;;;;;;;1.57;0.67;;;;;;;;;;5071366;28;20222;-75
2023/10/31 05:44:36;;;;;;;0.90;0.90;;;;;;;;;;5071145;28;20638;-75
2023/10/31 05:47:04;;;;;;;2.03;0.90;;;;;;;;;;5063439;28;20215;-75
2023/10/31 05:49:32;;;;;;;0.80;0.80;;;;;;;;;;5059994;28;20287;-76
2023/10/31 05:51:59;;;;;;;1.07;0.97;;;;;;;;;;5064165;28;20233;-77
2023/10/31 05:54:26;;;;;;;1.10;1.00;;;;;;;;;;5068014;28;20669;-76
2023/10/31 05:56:54;;;;;;;2.00;0.90;;;;;;;;;;5060130;28;20213;-75
2023/10/31 05:59:22;;;;;;;0.83;0.83;;;;;;;;;;5067922;28;20260;-76
2023/10/31 06:01:50;;;;;;;1.07;0.90;;;;;;;;;;5066181;28;20253;-76
2023/10/31 06:04:17;;;;;;;0.90;0.90;;;;;;;;;;5065822;28;20210;-77
2023/10/31 06:06:45;;;;;;;1.03;1.00;;;;;;;;;;5067867;28;20252;-77
2023/10/31 06:09:14;;;;;;;0.80;0.80;;;;;;;;;;5068550;28;20215;-74
2023/10/31 06:11:44;;;;;;;1.33;0.80;;;;;;;;;;5070393;28;20310;-75
2023/10/31 06:14:12;;;;;;;1.77;1.17;;;;;;;;;;5064547;28;20728;-76
2023/10/31 06:16:43;;;;;;;1.40;1.00;;;;;;;;;;5069210;28;20204;-77
2023/10/31 06:19:10;;;;;;;1.33;1.00;;;;;;;;;;5066921;28;20268;-74
2023/10/31 06:21:38;;;;;;;1.13;0.80;;;;;;;;;;5062551;28;20256;-76
2023/10/31 06:24:06;;;;;;;0.97;0.97;;;;;;;;;;5068390;28;20221;-76
2023/10/31 06:26:34;;;;;;;1.30;0.80;;;;;;;;;;5064725;28;20678;-75
2023/10/31 06:29:03;;;;;;;2.73;1.00;;;;;;;;;;5068653;28;20208;-77
2023/10/31 06:31:34;;;;;;;1.00;1.00;;;;;;;;;;5076538;28;20232;-75
2023/10/31 06:34:02;;;;;;;0.90;0.90;;;;;;;;;;5050239;28;21978;-78
2023/10/31 06:36:31;;;;;;;0.90;0.90;;;;;;;;;;5051064;28;20208;-77
2023/10/31 06:39:02;;;;;;;1.23;1.10;;;;;;;;;;5047319;28;21170;-77
2023/10/31 06:41:29;;;;;;;1.70;1.30;;;;;;;;;;5046985;28;20252;-77
2023/10/31 06:43:56;;;;;;;1.20;0.90;;;;;;;;;;5044456;28;20778;-76
2023/10/31 06:46:24;;;;;;;1.40;1.07;;;;;;;;;;5044185;28;20202;-78
2023/10/31 06:48:51;;;;;;;1.47;1.00;;;;;;;;;;5042209;28;20696;-77
2023/10/31 06:51:19;;;;;;;0.90;0.90;;;;;;;;;;5047727;28;20690;-75
2023/10/31 06:53:46;;;;;;;1.50;1.00;;;;;;;;;;5058551;28;20205;-77
2023/10/31 06:56:13;;;;;;;2.40;1.17;;;;;;;;;;5045836;28;20698;-75
2023/10/31 06:58:41;;;;;;;0.90;0.90;;;;;;;;;;5045822;28;20855;-77
2023/10/31 07:01:09;;;;;;;1.00;1.00;;;;;;;;;;5042606;28;20579;-75
2023/10/31 07:03:36;;;;;;;2.17;1.10;;;;;;;;;;5042785;28;20255;-75
2023/10/31 07:06:04;;;;;;;1.13;1.00;;;;;;;;;;5046207;28;20214;-78
2023/10/31 07:08:31;;;;;;;1.87;1.10;;;;;;;;;;5060206;28;20689;-77
2023/10/31 07:10:59;;;;;;;1.00;1.00;;;;;;;;;;5066996;28;20255;-75
2023/10/31 07:13:28;;;;;;;1.10;1.00;;;;;;;;;;5063055;28;20335;-77
2023/10/31 07:15:56;;;;;;;3.00;1.00;;;;;;;;;;5065581;28;20290;-75
2023/10/31 07:18:24;;;;;;;2.40;0.90;;;;;;;;;;5071418;28;20237;-76
2023/10/31 07:20:51;;;;;;;1.90;1.10;;;;;;;;;;5062194;28;20226;-76
2023/10/31 07:23:18;;;;;;;1.20;1.10;;;;;;;;;;5069702;28;20213;-75
2023/10/31 07:25:45;;;;;;;1.53;1.43;;;;;;;;;;5066569;28;20305;-77
2023/10/31 07:28:13;;;;;;;1.70;1.13;;;;;;;;;;5062266;28;20229;-76
2023/10/31 07:30:40;;;;;;;1.53;1.20;;;;;;;;;;5063907;28;20288;-76
2023/10/31 07:33:08;;;;;;;1.43;1.00;;;;;;;;;;5064325;28;20202;-77
2023/10/31 07:35:35;;;;;;;1.17;0.90;;;;;;;;;;5065817;28;20383;-77
2023/10/31 07:38:03;;;;;;;1.33;1.10;;;;;;;;;;5060175;28;20615;-77
2023/10/31 07:40:30;;;;;;;1.07;1.07;;;;;;;;;;5064450;28;20202;-76
2023/10/31 07:42:57;;;;;;;1.13;1.03;;;;;;;;;;5060194;28;20217;-76
2023/10/31 07:45:25;;;;;;;1.03;1.00;;;;;;;;;;5062329;28;20217;-76
2023/10/31 07:47:52;;;;;;;1.80;0.97;;;;;;;;;;5058768;28;20225;-76
2023/10/31 07:50:20;;;;;;;1.17;1.10;;;;;;;;;;5060812;28;20211;-77
2023/10/31 07:52:47;;;;;;;4.40;1.10;;;;;;;;;;5062192;28;20218;-77
2023/10/31 07:55:15;;;;;;;0.90;0.90;;;;;;;;;;5051998;28;20201;-77
2023/10/31 07:57:42;;;;;;;1.23;1.10;;;;;;;;;;5057057;28;20203;-76
2023/10/31 08:00:11;;;;;;;1.43;1.33;;;;;;;;;;5061302;28;20209;-77
2023/10/31 08:02:38;;;;;;;1.33;1.10;;;;;;;;;;5055759;28;20598;-76
2023/10/31 08:05:05;;;;;;;3.30;1.30;;;;;;;;;;5063949;28;20208;-76
2023/10/31 08:07:33;;;;;;;2.50;1.03;;;;;;;;;;5060631;28;20236;-75
2023/10/31 08:10:00;;;;;;;1.47;1.00;;;;;;;;;;5050351;28;20198;-75
2023/10/31 08:12:27;;;;;;;1.43;0.90;;;;;;;;;;5059632;28;20221;-76
2023/10/31 08:14:55;;;;;;;2.27;1.10;;;;;;;;;;5056543;28;20201;-75
2023/10/31 08:17:22;;;;;;;4.07;1.47;;;;;;;;;;5063993;28;20205;-75
2023/10/31 08:19:49;;;;;;;2.37;1.07;;;;;;;;;;5069345;28;20214;-76
2023/10/31 08:22:17;;;;;;;1.13;1.00;;;;;;;;;;5056342;28;20791;-75
2023/10/31 08:24:44;;;;;;;1.23;1.00;;;;;;;;;;5057887;28;20220;-76
2023/10/31 08:27:12;;;;;;;2.83;1.20;;;;;;;;;;5068730;28;20221;-77
2023/10/31 08:29:39;;;;;;;1.67;1.00;;;;;;;;;;5058732;28;20224;-78
2023/10/31 08:32:07;;;;;;;2.00;1.30;;;;;;;;;;5055342;28;20229;-78
2023/10/31 08:34:34;;;;;;;1.20;1.10;;;;;;;;;;5061062;28;20209;-77
2023/10/31 08:37:02;;;;;;;1.13;1.10;;;;;;;;;;5057296;28;20206;-77
2023/10/31 08:39:30;;;;;;;1.50;1.40;;;;;;;;;;5056114;28;20220;-76
2023/10/31 08:41:59;;;;;;;1.43;1.10;;;;;;;;;;5053769;28;20244;-75
2023/10/31 08:44:26;;;;;;;3.13;1.37;;;;;;;;;;5058290;28;20232;-76
2023/10/31 08:46:53;;;;;;;3.83;1.20;;;;;;;;;;5051393;28;20228;-76
2023/10/31 08:49:21;;;;;;;4.13;1.27;;;;;;;;;;5056221;28;20230;-76
2023/10/31 08:51:48;;;;;;;2.70;1.20;;;;;;;;;;5061232;28;21503;-75
2023/10/31 08:54:16;;;;;;;1.47;1.20;;;;;;;;;;5056761;28;20194;-75
2023/10/31 08:56:43;;;;;;;2.30;1.33;;;;;;;;;;5058196;28;20206;-76
2023/10/31 08:59:11;;;;;;;1.67;1.47;;;;;;;;;;5056530;28;20680;-75
2023/10/31 09:01:38;;;;;;;2.87;1.33;;;;;;;;;;5055274;28;20298;-75
2023/10/31 09:04:05;;;;;;;1.27;1.10;;;;;;;;;;5054235;28;20225;-75
2023/10/31 09:06:33;;;;;;;3.20;1.50;;;;;;;;;;5063324;28;20249;-77
2023/10/31 09:09:00;;;;;;;1.80;1.10;;;;;;;;;;5065388;28;20221;-76
2023/10/31 09:11:28;;;;;;;2.07;1.10;;;;;;;;;;5057136;28;20803;-75
2023/10/31 09:13:55;;;;;;;1.97;1.30;;;;;;;;;;5058896;28;20697;-77
2023/10/31 09:16:22;;;;;;;1.73;1.10;;;;;;;;;;5058914;28;20564;-77
2023/10/31 09:18:52;;;;;;;2.93;1.40;;;;;;;;;;5055628;28;20210;-77
2023/10/31 09:21:19;;;;;;;5.43;1.40;;;;;;;;;;5059531;28;20653;-76
2023/10/31 09:23:46;;;;;;;2.47;1.40;;;;;;;;;;5055845;28;20216;-77
2023/10/31 09:26:14;;;;;;;3.60;1.87;;;;;;;;;;5055156;28;20232;-77
2023/10/31 09:28:49;;;;;;;1.53;1.40;;;;;;;;;;5056558;28;20221;-76
2023/10/31 09:31:17;;;;;;;2.17;1.07;;;;;;;;;;5057479;28;20235;-77
2023/10/31 09:33:45;;;;;;;1.73;1.27;;;;;;;;;;5052847;28;20665;-74
2023/10/31 09:36:14;;;;;;;1.97;1.20;;;;;;;;;;5050955;28;20206;-75
2023/10/31 09:38:41;;;;;;;3.30;1.87;;;;;;;;;;5054012;28;20260;-76
2023/10/31 09:41:09;;;;;;;2.77;1.40;;;;;;;;;;5055761;28;20235;-76
2023/10/31 09:43:36;;;;;;;3.83;1.50;;;;;;;;;;5055647;28;20209;-75
2023/10/31 09:46:05;;;;;;;4.93;1.27;;;;;;;;;;5052238;28;20706;-75
2023/10/31 09:48:33;;;;;;;2.90;1.60;;;;;;;;;;5053728;28;21499;-77
2023/10/31 09:51:01;;;;;;;2.70;1.37;;;;;;;;;;5056238;28;20476;-75
2023/10/31 09:53:30;;;;;;;4.63;1.30;;;;;;;;;;5056405;28;20206;-77
2023/10/31 09:55:57;;;;;;;2.60;1.30;;;;;;;;;;5055190;28;20208;-77
2023/10/31 09:58:25;;;;;;;2.57;1.30;;;;;;;;;;5057201;28;20209;-77
2023/10/31 10:00:52;;;;;;;1.30;1.20;;;;;;;;;;5050930;28;20240;-77
2023/10/31 10:03:20;;;;;;;3.13;1.10;;;;;;;;;;5057728;28;20218;-76
2023/10/31 10:05:48;;;;;;;2.70;1.33;;;;;;;;;;5060386;28;20213;-76
2023/10/31 10:08:16;;;;;;;3.03;1.30;;;;;;;;;;5061785;28;21135;-75
2023/10/31 10:10:44;;;;;;;1.23;1.13;;;;;;;;;;5062774;28;20260;-76
2023/10/31 10:13:12;;;;;;;1.97;1.20;;;;;;;;;;5061522;28;20305;-75
2023/10/31 10:15:48;;;;;;;2.23;1.37;;;;;;;;;;5061500;28;20220;-74
2023/10/31 10:18:29;;;;;;;3.07;1.80;;;;;;;;;;5065131;28;20272;-74
2023/10/31 10:20:57;;;;;;;3.30;1.53;;;;;;;;;;5060962;28;20221;-74
2023/10/31 10:23:28;;;;;;;4.07;1.30;;;;;;;;;;5052845;28;20210;-75
2023/10/31 10:25:57;;;;;;;2.47;1.27;;;;;;;;;;5057161;28;20292;-76
2023/10/31 10:28:25;;;;;;;2.80;1.10;;;;;;;;;;5051167;28;20276;-75
2023/10/31 10:30:56;;;;;;;1.77;1.40;;;;;;;;;;5048332;28;20221;-77
2023/10/31 10:33:23;;;;;;;1.53;1.03;;;;;;;;;;5057790;28;20206;-75
2023/10/31 10:35:51;;;;;;;1.43;1.00;;;;;;;;;;5055753;28;20202;-76
2023/10/31 10:38:19;;;;;;;0.90;0.90;;;;;;;;;;5057296;28;20205;-76
2023/10/31 10:40:47;;;;;;;1.33;0.90;;;;;;;;;;5062412;28;20291;-76
2023/10/31 10:43:22;;;;;;;1.93;1.10;;;;;;;;;;5055416;28;20643;-76
2023/10/31 10:45:56;;;;;;;1.80;0.93;;;;;;;;;;5060730;28;20273;-76
2023/10/31 10:48:28;;;;;;;0.70;0.70;;;;;;;;;;5058958;28;20248;-75
2023/10/31 10:51:00;;;;;;;0.90;0.90;;;;;;;;;;5056621;28;20237;-77
2023/10/31 10:53:31;;;;;;;2.37;0.70;;;;;;;;;;5058212;28;20559;-77
2023/10/31 10:56:05;;;;;;;0.93;0.70;;;;;;;;;;5054869;28;20565;-75
2023/10/31 10:58:45;;;;;;;1.53;0.70;;;;;;;;;;5053025;28;20221;-75
2023/10/31 11:01:13;;;;;;;1.57;0.80;;;;;;;;;;5054305;28;20225;-74
2023/10/31 11:03:41;;;;;;;4.83;1.60;;;;;;;;;;5059289;28;20210;-75
2023/10/31 11:06:09;;;;;;;2.53;1.20;;;;;;;;;;5059215;28;20204;-77
2023/10/31 11:08:36;;;;;;;2.83;0.70;;;;;;;;;;5050828;28;20320;-77
2023/10/31 11:11:04;;;;;;;1.07;0.70;;;;;;;;;;5053834;28;20323;-77
2023/10/31 11:13:32;;;;;;;0.80;0.80;;;;;;;;;;5057357;28;20303;-76
2023/10/31 11:16:05;;;;;;;1.03;1.00;;;;;;;;;;5058740;28;20337;-77
2023/10/31 11:18:35;;;;;;;0.63;0.63;;;;;;;;;;5051600;28;20306;-77
2023/10/31 11:21:02;;;;;;;0.60;0.60;;;;;;;;;;5055428;28;20222;-77
2023/10/31 11:23:29;;;;;;;0.77;0.67;;;;;;;;;;5060582;28;20603;-77
2023/10/31 11:25:58;;;;;;;0.70;0.70;;;;;;;;;;5057130;28;20251;-77
2023/10/31 11:28:25;;;;;;;0.70;0.70;;;;;;;;;;5059308;28;20227;-77
2023/10/31 11:30:58;;;;;;;0.70;0.70;;;;;;;;;;5061369;28;20300;-76
2023/10/31 11:33:26;;;;;;;1.93;0.80;;;;;;;;;;5057342;28;20638;-77
2023/10/31 11:36:04;;;;;;;0.67;0.67;;;;;;;;;;5066619;28;20204;-76
2023/10/31 11:38:35;;;;;;;0.80;0.80;;;;;;;;;;5057262;28;20232;-77
2023/10/31 11:41:03;;;;;;;4.50;2.43;;;;;;;;;;5063090;28;20226;-75
2023/10/31 11:43:37;;;;;;;3.27;2.43;;;;;;;;;;5054748;28;20206;-76
2023/10/31 11:46:05;;;;;;;1.40;0.77;;;;;;;;;;5056720;28;20212;-77
2023/10/31 11:48:51;;;;;;;0.87;0.83;;;;;;;;;;5058435;28;20279;-76
2023/10/31 11:51:22;;;;;;;0.57;0.57;;;;;;;;;;5055214;28;20244;-75
2023/10/31 11:53:52;;;;;;;0.70;0.70;;;;;;;;;;5061008;28;20198;-75
2023/10/31 11:56:23;;;;;;;0.60;0.60;;;;;;;;;;5048951;28;20785;-77
2023/10/31 11:58:57;;;;;;;0.60;0.60;;;;;;;;;;5059009;28;20560;-76
2023/10/31 12:01:27;;;;;;;0.77;0.77;;;;;;;;;;5060453;28;20228;-75
2023/10/31 12:03:57;;;;;;;0.93;0.70;;;;;;;;;;5064271;28;20206;-76
2023/10/31 12:06:29;;;;;;;2.40;0.60;;;;;;;;;;5056782;28;20344;-76
2023/10/31 12:09:02;;;;;;;0.60;0.60;;;;;;;;;;5058402;28;20252;-76
2023/10/31 12:11:29;;;;;;;0.70;0.70;;;;;;;;;;5060732;28;20245;-76
2023/10/31 12:14:01;;;;;;;0.70;0.70;;;;;;;;;;5060830;28;20202;-76
2023/10/31 12:16:32;;;;;;;0.70;0.70;;;;;;;;;;5057112;28;20312;-76
2023/10/31 12:19:00;;;;;;;0.80;0.80;;;;;;;;;;5057212;28;20207;-76
2023/10/31 12:21:49;;;;;;;1.20;1.10;;;;;;;;;;5061681;28;20300;-77
2023/10/31 12:24:18;;;;;;;0.83;0.70;;;;;;;;;;5059819;28;20586;-75
2023/10/31 12:26:46;;;;;;;0.90;0.60;;;;;;;;;;5056548;28;20205;-77
2023/10/31 12:29:15;;;;;;;0.97;0.80;;;;;;;;;;5053592;28;20225;-74
2023/10/31 12:31:53;;;;;;;0.80;0.80;;;;;;;;;;5054064;28;20632;-74
2023/10/31 12:34:25;;;;;;;0.80;0.80;;;;;;;;;;5053610;28;20240;-74
2023/10/31 12:36:53;;;;;;;1.30;0.90;;;;;;;;;;5059103;28;20209;-76
2023/10/31 12:39:25;;;;;;;1.20;1.10;;;;;;;;;;5056206;28;20586;-75
2023/10/31 12:41:53;;;;;;;0.60;0.60;;;;;;;;;;5060877;28;20627;-76
2023/10/31 12:44:26;;;;;;;0.70;0.70;;;;;;;;;;5054925;28;20642;-76
2023/10/31 12:46:55;;;;;;;0.50;0.50;;;;;;;;;;5064490;28;20209;-76
2023/10/31 12:49:23;;;;;;;0.83;0.70;;;;;;;;;;5063561;28;20414;-77
2023/10/31 12:52:04;;;;;;;0.70;0.70;;;;;;;;;;5056232;28;20221;-77
2023/10/31 12:54:36;;;;;;;0.83;0.80;;;;;;;;;;5055368;28;20208;-74
2023/10/31 12:57:10;;;;;;;0.80;0.80;;;;;;;;;;5061683;28;20205;-76
2023/10/31 12:59:38;;;;;;;0.82;0.80;;;;;;;;;;5057432;28;20198;-77
2023/10/31 13:02:07;;;;;;;0.70;0.70;;;;;;;;;;5059416;28;22273;-76
2023/10/31 13:04:36;;;;;;;0.82;0.80;;;;;;;;;;5065582;28;20250;-75
2023/10/31 13:07:05;;;;;;;2.47;0.80;;;;;;;;;;5062880;28;20292;-76
2023/10/31 13:09:35;;;;;;;0.60;0.60;;;;;;;;;;5052285;28;20443;-76
2023/10/31 13:12:04;;;;;;;0.75;0.75;;;;;;;;;;5061561;28;20379;-76
2023/10/31 13:14:31;;;;;;;0.70;0.70;;;;;;;;;;5062048;28;20201;-74
2023/10/31 13:16:59;;;;;;;0.70;0.70;;;;;;;;;;5062132;28;20624;-76
2023/10/31 13:19:27;;;;;;;0.63;0.63;;;;;;;;;;5063740;28;20210;-75
2023/10/31 13:21:54;;;;;;;0.67;0.63;;;;;;;;;;5051136;28;20225;-75
2023/10/31 13:24:22;;;;;;;0.60;0.60;;;;;;;;;;5058880;28;20672;-75
2023/10/31 13:26:51;;;;;;;3.93;0.70;;;;;;;;;;5055790;28;20206;-75
2023/10/31 13:29:20;;;;;;;0.70;0.70;;;;;;;;;;5054325;28;20313;-75
2023/10/31 13:31:47;;;;;;;0.60;0.50;;;;;;;;;;5051197;28;20305;-75
2023/10/31 13:34:15;;;;;;;0.90;0.80;;;;;;;;;;5053432;28;20205;-76
2023/10/31 13:36:43;;;;;;;0.97;0.80;;;;;;;;;;5057320;28;20290;-76
2023/10/31 13:39:11;;;;;;;1.60;0.70;;;;;;;;;;5060793;28;20233;-77
2023/10/31 13:41:39;;;;;;;1.60;0.77;;;;;;;;;;5060649;28;20228;-75
2023/10/31 13:44:06;;;;;;;0.60;0.60;;;;;;;;;;5065275;28;20674;-75
2023/10/31 13:46:34;;;;;;;0.70;0.70;;;;;;;;;;5058030;28;20236;-75
2023/10/31 13:49:01;;;;;;;0.67;0.67;;;;;;;;;;5061689;28;20717;-75
2023/10/31 13:51:29;;;;;;;0.70;0.70;;;;;;;;;;5056026;28;20309;-77
2023/10/31 13:54:00;;;;;;;1.10;0.70;;;;;;;;;;5061998;28;20232;-77
2023/10/31 13:56:27;;;;;;;0.60;0.60;;;;;;;;;;5061934;28;20213;-76
2023/10/31 13:58:55;;;;;;;0.60;0.60;;;;;;;;;;5059130;28;20212;-75
2023/10/31 14:01:24;;;;;;;0.50;0.50;;;;;;;;;;5058741;28;20253;-76
2023/10/31 14:03:52;;;;;;;0.80;0.80;;;;;;;;;;5059329;28;20213;-76
2023/10/31 14:06:20;;;;;;;0.70;0.70;;;;;;;;;;5055994;28;20612;-75
2023/10/31 14:08:47;;;;;;;0.60;0.60;;;;;;;;;;5051941;28;20657;-77
2023/10/31 14:11:15;;;;;;;1.37;0.70;;;;;;;;;;5061098;28;20215;-77
2023/10/31 14:13:44;;;;;;;1.07;0.57;;;;;;;;;;5056751;28;20199;-77
2023/10/31 14:16:12;;;;;;;0.70;0.60;;;;;;;;;;5069050;28;20655;-77
2023/10/31 14:18:40;;;;;;;0.83;0.60;;;;;;;;;;5060976;28;20639;-75
2023/10/31 14:21:11;;;;;;;1.17;0.60;;;;;;;;;;5061502;28;20233;-77
2023/10/31 14:23:40;;;;;;;0.60;0.60;;;;;;;;;;5052572;28;20667;-77
2023/10/31 14:26:07;;;;;;;0.70;0.70;;;;;;;;;;5056416;28;20209;-76
2023/10/31 14:28:35;;;;;;;3.50;0.90;;;;;;;;;;5055816;28;20296;-76
2023/10/31 14:31:03;;;;;;;0.60;0.60;;;;;;;;;;5066131;28;20702;-76
2023/10/31 14:33:30;;;;;;;2.20;0.77;;;;;;;;;;5062146;28;20618;-76
2023/10/31 14:35:58;;;;;;;1.43;0.77;;;;;;;;;;5059139;28;20198;-76
2023/10/31 14:38:25;;;;;;;0.60;0.60;;;;;;;;;;5056594;28;20204;-77
2023/10/31 14:40:53;;;;;;;0.93;0.83;;;;;;;;;;5060279;28;20279;-77
2023/10/31 14:43:20;;;;;;;1.00;0.80;;;;;;;;;;5061417;28;20206;-76
2023/10/31 14:45:48;;;;;;;1.33;0.70;;;;;;;;;;5064080;28;20304;-77
2023/10/31 14:48:21;;;;;;;1.80;0.70;;;;;;;;;;5059065;28;20535;-77
2023/10/31 14:50:48;;;;;;;1.10;0.80;;;;;;;;;;5055093;28;20254;-77